sensor_id;sensor_type;location;lat;lon;timestamp;P1;durP1;ratioP1;P2;durP2;ratioP2
13061;SDS011;6597;52.218;9.882;2024-01-07T00:00:22;15.67;;;9.37;;
13061;SDS011;6597;52.218;9.882;2024-01-07T00:02:49;15.80;;;10.00;;
13061;SDS011;6597;52.218;9.882;2024-01-07T00:05:15;15.80;;;9.93;;
13061;SDS011;6597;52.218;9.882;2024-01-07T00:07:42;18.67;;;10.70;;
13061;SDS011;6597;52.218;9.882;2024-01-07T00:10:09;16.13;;;9.60;;
13061;SDS011;6597;52.218;9.882;2024-01-07T00:12:37;15.00;;;9.33;;
13061;SDS011;6597;52.218;9.882;2024-01-07T00:15:03;18.90;;;10.80;;
13061;SDS011;6597;52.218;9.882;2024-01-07T00:17:30;17.10;;;10.47;;
13061;SDS011;6597;52.218;9.882;2024-01-07T00:19:57;18.83;;;10.97;;
13061;SDS011;6597;52.218;9.882;2024-01-07T00:22:23;16.50;;;10.93;;
13061;SDS011;6597;52.218;9.882;2024-01-07T00:24:50;15.53;;;11.13;;
13061;SDS011;6597;52.218;9.882;2024-01-07T00:27:16;16.53;;;10.23;;
13061;SDS011;6597;52.218;9.882;2024-01-07T00:29:44;15.73;;;10.47;;
13061;SDS011;6597;52.218;9.882;2024-01-07T00:32:11;14.47;;;9.77;;
13061;SDS011;6597;52.218;9.882;2024-01-07T00:34:37;16.20;;;9.77;;
13061;SDS011;6597;52.218;9.882;2024-01-07T00:37:04;16.77;;;9.87;;
13061;SDS011;6597;52.218;9.882;2024-01-07T00:39:30;17.73;;;10.43;;
13061;SDS011;6597;52.218;9.882;2024-01-07T00:41:57;18.43;;;10.33;;
13061;SDS011;6597;52.218;9.882;2024-01-07T00:44:24;19.40;;;10.37;;
13061;SDS011;6597;52.218;9.882;2024-01-07T00:46:52;14.43;;;9.30;;
13061;SDS011;6597;52.218;9.882;2024-01-07T00:49:19;18.53;;;10.07;;
13061;SDS011;6597;52.218;9.882;2024-01-07T00:51:45;13.23;;;9.37;;
13061;SDS011;6597;52.218;9.882;2024-01-07T00:54:12;13.83;;;9.17;;
13061;SDS011;6597;52.218;9.882;2024-01-07T00:56:38;15.80;;;9.00;;
13061;SDS011;6597;52.218;9.882;2024-01-07T00:59:05;15.87;;;9.73;;
13061;SDS011;6597;52.218;9.882;2024-01-07T01:01:31;20.43;;;11.90;;
13061;SDS011;6597;52.218;9.882;2024-01-07T01:03:59;19.83;;;11.63;;
13061;SDS011;6597;52.218;9.882;2024-01-07T01:06:25;15.60;;;10.03;;
13061;SDS011;6597;52.218;9.882;2024-01-07T01:08:52;13.13;;;9.80;;
13061;SDS011;6597;52.218;9.882;2024-01-07T01:11:19;16.20;;;9.50;;
13061;SDS011;6597;52.218;9.882;2024-01-07T01:13:45;16.30;;;9.47;;
13061;SDS011;6597;52.218;9.882;2024-01-07T01:16:12;13.87;;;9.10;;
13061;SDS011;6597;52.218;9.882;2024-01-07T01:18:38;20.00;;;10.43;;
13061;SDS011;6597;52.218;9.882;2024-01-07T01:21:06;18.97;;;9.43;;
13061;SDS011;6597;52.218;9.882;2024-01-07T01:23:33;23.30;;;11.77;;
13061;SDS011;6597;52.218;9.882;2024-01-07T01:26:00;15.27;;;10.73;;
13061;SDS011;6597;52.218;9.882;2024-01-07T01:28:27;17.60;;;10.33;;
13061;SDS011;6597;52.218;9.882;2024-01-07T01:30:53;16.80;;;11.40;;
13061;SDS011;6597;52.218;9.882;2024-01-07T01:33:20;20.53;;;11.83;;
13061;SDS011;6597;52.218;9.882;2024-01-07T01:35:46;16.77;;;10.50;;
13061;SDS011;6597;52.218;9.882;2024-01-07T01:38:14;19.73;;;11.67;;
13061;SDS011;6597;52.218;9.882;2024-01-07T01:40:41;20.63;;;11.73;;
13061;SDS011;6597;52.218;9.882;2024-01-07T01:43:08;19.23;;;10.57;;
13061;SDS011;6597;52.218;9.882;2024-01-07T01:45:34;13.73;;;8.40;;
13061;SDS011;6597;52.218;9.882;2024-01-07T01:48:01;14.50;;;8.67;;
13061;SDS011;6597;52.218;9.882;2024-01-07T01:50:28;14.33;;;8.20;;
13061;SDS011;6597;52.218;9.882;2024-01-07T01:52:55;16.53;;;10.40;;
13061;SDS011;6597;52.218;9.882;2024-01-07T01:55:23;15.07;;;8.43;;
13061;SDS011;6597;52.218;9.882;2024-01-07T01:57:50;18.77;;;9.70;;
13061;SDS011;6597;52.218;9.882;2024-01-07T02:00:19;17.07;;;8.57;;
13061;SDS011;6597;52.218;9.882;2024-01-07T02:02:45;17.33;;;9.30;;
13061;SDS011;6597;52.218;9.882;2024-01-07T02:05:12;16.37;;;9.33;;
13061;SDS011;6597;52.218;9.882;2024-01-07T02:07:39;13.83;;;9.37;;
13061;SDS011;6597;52.218;9.882;2024-01-07T02:10:06;13.77;;;8.47;;
13061;SDS011;6597;52.218;9.882;2024-01-07T02:12:34;16.50;;;8.87;;
13061;SDS011;6597;52.218;9.882;2024-01-07T02:15:01;12.37;;;6.43;;
13061;SDS011;6597;52.218;9.882;2024-01-07T02:17:27;14.20;;;7.13;;
13061;SDS011;6597;52.218;9.882;2024-01-07T02:19:54;10.83;;;7.20;;
13061;SDS011;6597;52.218;9.882;2024-01-07T02:22:21;9.93;;;6.13;;
13061;SDS011;6597;52.218;9.882;2024-01-07T02:24:48;12.23;;;6.80;;
13061;SDS011;6597;52.218;9.882;2024-01-07T02:27:15;10.80;;;7.00;;
13061;SDS011;6597;52.218;9.882;2024-01-07T02:29:41;11.70;;;7.50;;
13061;SDS011;6597;52.218;9.882;2024-01-07T02:32:08;10.90;;;6.67;;
13061;SDS011;6597;52.218;9.882;2024-01-07T02:34:34;10.97;;;6.87;;
13061;SDS011;6597;52.218;9.882;2024-01-07T02:37:01;15.00;;;7.17;;
13061;SDS011;6597;52.218;9.882;2024-01-07T02:39:28;15.67;;;8.03;;
13061;SDS011;6597;52.218;9.882;2024-01-07T02:41:55;15.73;;;7.63;;
13061;SDS011;6597;52.218;9.882;2024-01-07T02:44:22;16.97;;;7.43;;
13061;SDS011;6597;52.218;9.882;2024-01-07T02:46:49;14.87;;;8.00;;
13061;SDS011;6597;52.218;9.882;2024-01-07T02:49:15;14.13;;;7.03;;
13061;SDS011;6597;52.218;9.882;2024-01-07T02:51:42;15.30;;;6.83;;
13061;SDS011;6597;52.218;9.882;2024-01-07T02:54:10;11.70;;;6.23;;
13061;SDS011;6597;52.218;9.882;2024-01-07T02:56:37;12.97;;;7.07;;
13061;SDS011;6597;52.218;9.882;2024-01-07T02:59:05;13.70;;;8.37;;
13061;SDS011;6597;52.218;9.882;2024-01-07T03:01:31;14.47;;;7.83;;
13061;SDS011;6597;52.218;9.882;2024-01-07T03:04:05;14.97;;;7.67;;
13061;SDS011;6597;52.218;9.882;2024-01-07T03:06:31;16.73;;;8.97;;
13061;SDS011;6597;52.218;9.882;2024-01-07T03:08:58;12.53;;;7.77;;
13061;SDS011;6597;52.218;9.882;2024-01-07T03:11:24;12.10;;;8.07;;
13061;SDS011;6597;52.218;9.882;2024-01-07T03:13:51;15.97;;;8.50;;
13061;SDS011;6597;52.218;9.882;2024-01-07T03:16:22;12.20;;;7.77;;
13061;SDS011;6597;52.218;9.882;2024-01-07T03:18:49;12.03;;;7.53;;
13061;SDS011;6597;52.218;9.882;2024-01-07T03:21:16;9.77;;;6.60;;
13061;SDS011;6597;52.218;9.882;2024-01-07T03:23:44;10.40;;;5.87;;
13061;SDS011;6597;52.218;9.882;2024-01-07T03:26:11;9.57;;;6.13;;
13061;SDS011;6597;52.218;9.882;2024-01-07T03:28:37;8.10;;;6.00;;
13061;SDS011;6597;52.218;9.882;2024-01-07T03:31:04;11.23;;;6.20;;
13061;SDS011;6597;52.218;9.882;2024-01-07T03:33:33;11.03;;;5.87;;
13061;SDS011;6597;52.218;9.882;2024-01-07T03:35:59;11.03;;;6.63;;
13061;SDS011;6597;52.218;9.882;2024-01-07T03:38:26;9.47;;;6.00;;
13061;SDS011;6597;52.218;9.882;2024-01-07T03:40:52;8.60;;;5.97;;
13061;SDS011;6597;52.218;9.882;2024-01-07T03:43:19;10.23;;;6.20;;
13061;SDS011;6597;52.218;9.882;2024-01-07T03:45:45;13.57;;;6.53;;
13061;SDS011;6597;52.218;9.882;2024-01-07T03:48:14;10.20;;;5.60;;
13061;SDS011;6597;52.218;9.882;2024-01-07T03:50:42;8.57;;;5.67;;
13061;SDS011;6597;52.218;9.882;2024-01-07T03:53:09;9.47;;;5.07;;
13061;SDS011;6597;52.218;9.882;2024-01-07T03:55:36;9.27;;;5.20;;
13061;SDS011;6597;52.218;9.882;2024-01-07T03:58:02;9.00;;;5.13;;
13061;SDS011;6597;52.218;9.882;2024-01-07T04:00:29;8.37;;;5.27;;
13061;SDS011;6597;52.218;9.882;2024-01-07T04:02:55;11.73;;;5.67;;
13061;SDS011;6597;52.218;9.882;2024-01-07T04:05:22;9.30;;;5.10;;
13061;SDS011;6597;52.218;9.882;2024-01-07T04:07:50;9.47;;;5.27;;
13061;SDS011;6597;52.218;9.882;2024-01-07T04:10:16;8.30;;;5.10;;
13061;SDS011;6597;52.218;9.882;2024-01-07T04:12:43;8.07;;;4.97;;
13061;SDS011;6597;52.218;9.882;2024-01-07T04:15:10;10.47;;;4.43;;
13061;SDS011;6597;52.218;9.882;2024-01-07T04:17:37;9.10;;;4.57;;
13061;SDS011;6597;52.218;9.882;2024-01-07T04:20:03;7.00;;;4.07;;
13061;SDS011;6597;52.218;9.882;2024-01-07T04:22:31;8.57;;;4.37;;
13061;SDS011;6597;52.218;9.882;2024-01-07T04:24:59;7.63;;;4.77;;
13061;SDS011;6597;52.218;9.882;2024-01-07T04:27:26;5.57;;;3.40;;
13061;SDS011;6597;52.218;9.882;2024-01-07T04:29:52;6.90;;;4.23;;
13061;SDS011;6597;52.218;9.882;2024-01-07T04:32:19;7.10;;;4.03;;
13061;SDS011;6597;52.218;9.882;2024-01-07T04:34:45;8.67;;;3.73;;
13061;SDS011;6597;52.218;9.882;2024-01-07T04:37:12;5.30;;;3.83;;
13061;SDS011;6597;52.218;9.882;2024-01-07T04:39:38;8.60;;;3.87;;
13061;SDS011;6597;52.218;9.882;2024-01-07T04:42:06;6.80;;;3.43;;
13061;SDS011;6597;52.218;9.882;2024-01-07T04:44:33;5.33;;;3.50;;
13061;SDS011;6597;52.218;9.882;2024-01-07T04:46:59;7.67;;;3.33;;
13061;SDS011;6597;52.218;9.882;2024-01-07T04:49:26;7.67;;;3.90;;
13061;SDS011;6597;52.218;9.882;2024-01-07T04:51:53;5.10;;;3.40;;
13061;SDS011;6597;52.218;9.882;2024-01-07T04:54:19;5.90;;;3.40;;
13061;SDS011;6597;52.218;9.882;2024-01-07T04:56:46;4.53;;;2.37;;
13061;SDS011;6597;52.218;9.882;2024-01-07T04:59:13;3.33;;;2.40;;
13061;SDS011;6597;52.218;9.882;2024-01-07T05:01:40;4.47;;;2.67;;
13061;SDS011;6597;52.218;9.882;2024-01-07T05:04:07;5.73;;;3.30;;
13061;SDS011;6597;52.218;9.882;2024-01-07T05:06:33;5.63;;;2.90;;
13061;SDS011;6597;52.218;9.882;2024-01-07T05:09:00;5.40;;;2.90;;
13061;SDS011;6597;52.218;9.882;2024-01-07T05:11:26;5.30;;;2.53;;
13061;SDS011;6597;52.218;9.882;2024-01-07T05:13:53;4.57;;;2.87;;
13061;SDS011;6597;52.218;9.882;2024-01-07T05:16:21;3.47;;;2.23;;
13061;SDS011;6597;52.218;9.882;2024-01-07T05:18:47;4.87;;;2.67;;
13061;SDS011;6597;52.218;9.882;2024-01-07T05:21:14;3.77;;;2.13;;
13061;SDS011;6597;52.218;9.882;2024-01-07T05:23:41;4.40;;;2.60;;
13061;SDS011;6597;52.218;9.882;2024-01-07T05:26:07;3.33;;;2.57;;
13061;SDS011;6597;52.218;9.882;2024-01-07T05:28:34;5.67;;;2.90;;
13061;SDS011;6597;52.218;9.882;2024-01-07T05:31:02;3.17;;;2.30;;
13061;SDS011;6597;52.218;9.882;2024-01-07T05:33:30;4.67;;;2.90;;
13061;SDS011;6597;52.218;9.882;2024-01-07T05:35:56;3.20;;;2.33;;
13061;SDS011;6597;52.218;9.882;2024-01-07T05:38:23;4.20;;;2.53;;
13061;SDS011;6597;52.218;9.882;2024-01-07T05:40:49;4.80;;;2.50;;
13061;SDS011;6597;52.218;9.882;2024-01-07T05:43:16;3.33;;;2.07;;
13061;SDS011;6597;52.218;9.882;2024-01-07T05:45:42;2.97;;;2.03;;
13061;SDS011;6597;52.218;9.882;2024-01-07T05:48:09;3.13;;;2.40;;
13061;SDS011;6597;52.218;9.882;2024-01-07T05:50:37;2.73;;;1.83;;
13061;SDS011;6597;52.218;9.882;2024-01-07T05:53:03;6.17;;;2.57;;
13061;SDS011;6597;52.218;9.882;2024-01-07T05:55:30;4.63;;;2.60;;
13061;SDS011;6597;52.218;9.882;2024-01-07T05:57:56;4.47;;;2.80;;
13061;SDS011;6597;52.218;9.882;2024-01-07T06:00:23;5.67;;;2.97;;
13061;SDS011;6597;52.218;9.882;2024-01-07T06:02:50;3.03;;;2.20;;
13061;SDS011;6597;52.218;9.882;2024-01-07T06:05:16;3.27;;;2.37;;
13061;SDS011;6597;52.218;9.882;2024-01-07T06:07:44;3.57;;;2.40;;
13061;SDS011;6597;52.218;9.882;2024-01-07T06:10:11;3.23;;;1.90;;
13061;SDS011;6597;52.218;9.882;2024-01-07T06:12:37;5.53;;;2.53;;
13061;SDS011;6597;52.218;9.882;2024-01-07T06:15:04;5.43;;;2.47;;
13061;SDS011;6597;52.218;9.882;2024-01-07T06:17:31;3.97;;;2.27;;
13061;SDS011;6597;52.218;9.882;2024-01-07T06:19:58;4.63;;;2.23;;
13061;SDS011;6597;52.218;9.882;2024-01-07T06:22:24;4.30;;;2.70;;
13061;SDS011;6597;52.218;9.882;2024-01-07T06:24:52;4.30;;;2.40;;
13061;SDS011;6597;52.218;9.882;2024-01-07T06:27:19;5.73;;;2.90;;
13061;SDS011;6597;52.218;9.882;2024-01-07T06:29:45;4.40;;;2.60;;
13061;SDS011;6597;52.218;9.882;2024-01-07T06:32:12;4.17;;;2.53;;
13061;SDS011;6597;52.218;9.882;2024-01-07T06:34:39;3.43;;;2.30;;
13061;SDS011;6597;52.218;9.882;2024-01-07T06:37:06;6.30;;;2.70;;
13061;SDS011;6597;52.218;9.882;2024-01-07T06:39:35;3.93;;;2.50;;
13061;SDS011;6597;52.218;9.882;2024-01-07T06:42:04;4.77;;;2.50;;
13061;SDS011;6597;52.218;9.882;2024-01-07T06:44:31;4.13;;;2.80;;
13061;SDS011;6597;52.218;9.882;2024-01-07T06:46:58;3.97;;;2.50;;
13061;SDS011;6597;52.218;9.882;2024-01-07T06:49:24;4.53;;;2.80;;
13061;SDS011;6597;52.218;9.882;2024-01-07T06:51:51;4.87;;;3.03;;
13061;SDS011;6597;52.218;9.882;2024-01-07T06:54:17;5.33;;;2.80;;
13061;SDS011;6597;52.218;9.882;2024-01-07T06:56:44;10.10;;;3.07;;
13061;SDS011;6597;52.218;9.882;2024-01-07T06:59:11;4.10;;;2.87;;
13061;SDS011;6597;52.218;9.882;2024-01-07T07:01:38;3.93;;;3.07;;
13061;SDS011;6597;52.218;9.882;2024-01-07T07:04:04;7.03;;;2.50;;
13061;SDS011;6597;52.218;9.882;2024-01-07T07:06:31;6.77;;;2.53;;
13061;SDS011;6597;52.218;9.882;2024-01-07T07:08:57;3.13;;;2.60;;
13061;SDS011;6597;52.218;9.882;2024-01-07T07:11:24;7.43;;;3.00;;
13061;SDS011;6597;52.218;9.882;2024-01-07T07:13:50;4.20;;;2.90;;
13061;SDS011;6597;52.218;9.882;2024-01-07T07:16:18;7.07;;;3.17;;
13061;SDS011;6597;52.218;9.882;2024-01-07T07:18:45;4.83;;;3.03;;
13061;SDS011;6597;52.218;9.882;2024-01-07T07:21:11;4.33;;;2.87;;
13061;SDS011;6597;52.218;9.882;2024-01-07T07:23:38;6.70;;;3.07;;
13061;SDS011;6597;52.218;9.882;2024-01-07T07:26:04;8.10;;;3.03;;
13061;SDS011;6597;52.218;9.882;2024-01-07T07:28:32;5.50;;;3.10;;
13061;SDS011;6597;52.218;9.882;2024-01-07T07:30:58;6.67;;;3.60;;
13061;SDS011;6597;52.218;9.882;2024-01-07T07:33:26;10.33;;;2.87;;
13061;SDS011;6597;52.218;9.882;2024-01-07T07:35:53;6.47;;;3.80;;
13061;SDS011;6597;52.218;9.882;2024-01-07T07:38:19;3.50;;;2.50;;
13061;SDS011;6597;52.218;9.882;2024-01-07T07:40:46;3.97;;;2.80;;
13061;SDS011;6597;52.218;9.882;2024-01-07T07:43:17;7.00;;;2.97;;
13061;SDS011;6597;52.218;9.882;2024-01-07T07:45:44;4.30;;;2.77;;
13061;SDS011;6597;52.218;9.882;2024-01-07T07:48:10;2.90;;;2.20;;
13061;SDS011;6597;52.218;9.882;2024-01-07T07:50:38;2.80;;;2.30;;
13061;SDS011;6597;52.218;9.882;2024-01-07T07:53:05;3.93;;;2.80;;
13061;SDS011;6597;52.218;9.882;2024-01-07T07:55:32;5.10;;;3.03;;
13061;SDS011;6597;52.218;9.882;2024-01-07T07:57:58;5.43;;;2.80;;
13061;SDS011;6597;52.218;9.882;2024-01-07T08:00:25;4.83;;;3.20;;
13061;SDS011;6597;52.218;9.882;2024-01-07T08:02:51;4.83;;;2.67;;
13061;SDS011;6597;52.218;9.882;2024-01-07T08:05:18;5.23;;;2.50;;
13061;SDS011;6597;52.218;9.882;2024-01-07T08:07:46;6.47;;;3.00;;
13061;SDS011;6597;52.218;9.882;2024-01-07T08:10:12;6.23;;;2.77;;
13061;SDS011;6597;52.218;9.882;2024-01-07T08:12:39;5.50;;;2.70;;
13061;SDS011;6597;52.218;9.882;2024-01-07T08:15:06;5.07;;;3.17;;
13061;SDS011;6597;52.218;9.882;2024-01-07T08:17:34;6.90;;;2.63;;
13061;SDS011;6597;52.218;9.882;2024-01-07T08:20:00;4.30;;;2.53;;
13061;SDS011;6597;52.218;9.882;2024-01-07T08:22:28;3.50;;;2.50;;
13061;SDS011;6597;52.218;9.882;2024-01-07T08:24:56;5.43;;;3.00;;
13061;SDS011;6597;52.218;9.882;2024-01-07T08:27:23;4.77;;;3.03;;
13061;SDS011;6597;52.218;9.882;2024-01-07T08:29:49;4.07;;;2.70;;
13061;SDS011;6597;52.218;9.882;2024-01-07T08:32:16;4.13;;;2.87;;
13061;SDS011;6597;52.218;9.882;2024-01-07T08:34:42;4.40;;;3.40;;
13061;SDS011;6597;52.218;9.882;2024-01-07T08:37:09;4.93;;;3.20;;
13061;SDS011;6597;52.218;9.882;2024-01-07T08:39:35;4.87;;;3.20;;
13061;SDS011;6597;52.218;9.882;2024-01-07T08:42:04;3.67;;;2.80;;
13061;SDS011;6597;52.218;9.882;2024-01-07T08:44:31;3.83;;;2.47;;
13061;SDS011;6597;52.218;9.882;2024-01-07T08:46:57;5.80;;;3.40;;
13061;SDS011;6597;52.218;9.882;2024-01-07T08:49:25;6.00;;;3.43;;
13061;SDS011;6597;52.218;9.882;2024-01-07T08:51:52;6.87;;;3.33;;
13061;SDS011;6597;52.218;9.882;2024-01-07T08:54:19;7.73;;;3.23;;
13061;SDS011;6597;52.218;9.882;2024-01-07T08:56:45;5.10;;;3.10;;
13061;SDS011;6597;52.218;9.882;2024-01-07T08:59:13;4.30;;;2.97;;
13061;SDS011;6597;52.218;9.882;2024-01-07T09:01:40;4.47;;;3.03;;
13061;SDS011;6597;52.218;9.882;2024-01-07T09:04:05;6.07;;;3.07;;
13061;SDS011;6597;52.218;9.882;2024-01-07T09:06:32;6.27;;;3.33;;
13061;SDS011;6597;52.218;9.882;2024-01-07T09:08:59;7.27;;;3.17;;
13061;SDS011;6597;52.218;9.882;2024-01-07T09:11:25;4.63;;;2.53;;
13061;SDS011;6597;52.218;9.882;2024-01-07T09:13:52;4.50;;;3.33;;
13061;SDS011;6597;52.218;9.882;2024-01-07T09:16:20;3.70;;;2.53;;
13061;SDS011;6597;52.218;9.882;2024-01-07T09:18:46;5.87;;;3.00;;
13061;SDS011;6597;52.218;9.882;2024-01-07T09:21:13;8.27;;;2.93;;
13061;SDS011;6597;52.218;9.882;2024-01-07T09:23:40;3.83;;;2.77;;
13061;SDS011;6597;52.218;9.882;2024-01-07T09:26:07;7.13;;;2.80;;
13061;SDS011;6597;52.218;9.882;2024-01-07T09:28:34;3.50;;;2.57;;
13061;SDS011;6597;52.218;9.882;2024-01-07T09:31:00;3.80;;;2.70;;
13061;SDS011;6597;52.218;9.882;2024-01-07T09:33:28;4.03;;;3.07;;
13061;SDS011;6597;52.218;9.882;2024-01-07T09:35:55;4.57;;;3.50;;
13061;SDS011;6597;52.218;9.882;2024-01-07T09:38:21;6.07;;;3.13;;
13061;SDS011;6597;52.218;9.882;2024-01-07T09:40:49;4.67;;;3.10;;
13061;SDS011;6597;52.218;9.882;2024-01-07T09:43:16;11.83;;;3.20;;
13061;SDS011;6597;52.218;9.882;2024-01-07T09:45:46;3.33;;;2.70;;
13061;SDS011;6597;52.218;9.882;2024-01-07T09:48:13;5.20;;;2.87;;
13061;SDS011;6597;52.218;9.882;2024-01-07T09:50:41;3.80;;;2.70;;
13061;SDS011;6597;52.218;9.882;2024-01-07T09:53:09;5.47;;;2.87;;
13061;SDS011;6597;52.218;9.882;2024-01-07T09:55:44;4.73;;;2.93;;
13061;SDS011;6597;52.218;9.882;2024-01-07T09:58:17;4.10;;;2.80;;
13061;SDS011;6597;52.218;9.882;2024-01-07T10:00:44;5.00;;;2.67;;
13061;SDS011;6597;52.218;9.882;2024-01-07T10:03:10;3.77;;;2.47;;
13061;SDS011;6597;52.218;9.882;2024-01-07T10:05:37;5.20;;;2.33;;
13061;SDS011;6597;52.218;9.882;2024-01-07T10:08:06;4.07;;;2.33;;
13061;SDS011;6597;52.218;9.882;2024-01-07T10:10:33;4.37;;;2.77;;
13061;SDS011;6597;52.218;9.882;2024-01-07T10:13:01;5.53;;;2.40;;
13061;SDS011;6597;52.218;9.882;2024-01-07T10:15:27;4.27;;;2.90;;
13061;SDS011;6597;52.218;9.882;2024-01-07T10:17:54;3.57;;;2.40;;
13061;SDS011;6597;52.218;9.882;2024-01-07T10:20:21;3.27;;;2.57;;
13061;SDS011;6597;52.218;9.882;2024-01-07T10:22:49;3.97;;;2.83;;
13061;SDS011;6597;52.218;9.882;2024-01-07T10:25:18;5.97;;;3.13;;
13061;SDS011;6597;52.218;9.882;2024-01-07T10:27:44;4.77;;;3.10;;
13061;SDS011;6597;52.218;9.882;2024-01-07T10:30:11;4.27;;;3.13;;
13061;SDS011;6597;52.218;9.882;2024-01-07T10:32:38;4.13;;;2.87;;
13061;SDS011;6597;52.218;9.882;2024-01-07T10:35:08;2.70;;;2.20;;
13061;SDS011;6597;52.218;9.882;2024-01-07T10:37:39;4.87;;;2.57;;
13061;SDS011;6597;52.218;9.882;2024-01-07T10:40:06;4.97;;;2.70;;
13061;SDS011;6597;52.218;9.882;2024-01-07T10:42:35;6.00;;;2.77;;
13061;SDS011;6597;52.218;9.882;2024-01-07T10:45:05;4.20;;;2.40;;
13061;SDS011;6597;52.218;9.882;2024-01-07T10:47:32;5.03;;;2.60;;
13061;SDS011;6597;52.218;9.882;2024-01-07T10:50:01;3.27;;;2.10;;
13061;SDS011;6597;52.218;9.882;2024-01-07T10:52:29;3.37;;;2.03;;
13061;SDS011;6597;52.218;9.882;2024-01-07T10:54:56;5.27;;;2.53;;
13061;SDS011;6597;52.218;9.882;2024-01-07T10:57:27;3.27;;;2.30;;
13061;SDS011;6597;52.218;9.882;2024-01-07T11:00:01;4.90;;;2.80;;
13061;SDS011;6597;52.218;9.882;2024-01-07T11:02:32;3.50;;;1.97;;
13061;SDS011;6597;52.218;9.882;2024-01-07T11:05:04;3.73;;;2.70;;
13061;SDS011;6597;52.218;9.882;2024-01-07T11:07:40;7.03;;;2.77;;
13061;SDS011;6597;52.218;9.882;2024-01-07T11:10:10;3.77;;;2.20;;
13061;SDS011;6597;52.218;9.882;2024-01-07T11:12:39;4.40;;;2.60;;
13061;SDS011;6597;52.218;9.882;2024-01-07T11:15:08;2.80;;;2.13;;
13061;SDS011;6597;52.218;9.882;2024-01-07T11:17:41;5.97;;;2.60;;
13061;SDS011;6597;52.218;9.882;2024-01-07T11:20:12;5.17;;;2.87;;
13061;SDS011;6597;52.218;9.882;2024-01-07T11:22:44;5.60;;;2.73;;
13061;SDS011;6597;52.218;9.882;2024-01-07T11:25:27;2.80;;;2.23;;
13061;SDS011;6597;52.218;9.882;2024-01-07T11:27:55;4.60;;;2.57;;
13061;SDS011;6597;52.218;9.882;2024-01-07T11:30:24;6.80;;;2.97;;
13061;SDS011;6597;52.218;9.882;2024-01-07T11:32:56;3.57;;;2.07;;
13061;SDS011;6597;52.218;9.882;2024-01-07T11:35:29;4.07;;;2.50;;
13061;SDS011;6597;52.218;9.882;2024-01-07T11:38:26;4.37;;;2.90;;
13061;SDS011;6597;52.218;9.882;2024-01-07T11:40:53;3.90;;;2.60;;
13061;SDS011;6597;52.218;9.882;2024-01-07T11:43:22;6.40;;;3.10;;
13061;SDS011;6597;52.218;9.882;2024-01-07T11:45:50;4.40;;;2.50;;
13061;SDS011;6597;52.218;9.882;2024-01-07T11:48:18;3.57;;;2.00;;
13061;SDS011;6597;52.218;9.882;2024-01-07T11:50:45;3.63;;;2.13;;
13061;SDS011;6597;52.218;9.882;2024-01-07T11:53:11;3.20;;;2.20;;
13061;SDS011;6597;52.218;9.882;2024-01-07T11:55:38;4.20;;;2.70;;
13061;SDS011;6597;52.218;9.882;2024-01-07T11:58:05;5.00;;;2.83;;
13061;SDS011;6597;52.218;9.882;2024-01-07T12:00:31;2.73;;;2.17;;
13061;SDS011;6597;52.218;9.882;2024-01-07T12:03:00;6.10;;;2.73;;
13061;SDS011;6597;52.218;9.882;2024-01-07T12:05:27;4.10;;;2.17;;
13061;SDS011;6597;52.218;9.882;2024-01-07T12:07:54;7.20;;;2.90;;
13061;SDS011;6597;52.218;9.882;2024-01-07T12:10:20;3.97;;;2.33;;
13061;SDS011;6597;52.218;9.882;2024-01-07T12:12:47;5.97;;;2.90;;
13061;SDS011;6597;52.218;9.882;2024-01-07T12:15:16;4.73;;;3.27;;
13061;SDS011;6597;52.218;9.882;2024-01-07T12:17:47;6.47;;;3.00;;
13061;SDS011;6597;52.218;9.882;2024-01-07T12:20:22;3.93;;;3.00;;
13061;SDS011;6597;52.218;9.882;2024-01-07T12:22:49;4.63;;;2.93;;
13061;SDS011;6597;52.218;9.882;2024-01-07T12:25:20;5.13;;;3.17;;
13061;SDS011;6597;52.218;9.882;2024-01-07T12:27:47;5.30;;;3.50;;
13061;SDS011;6597;52.218;9.882;2024-01-07T12:30:17;4.90;;;2.90;;
13061;SDS011;6597;52.218;9.882;2024-01-07T12:32:44;3.70;;;2.33;;
13061;SDS011;6597;52.218;9.882;2024-01-07T12:35:11;4.17;;;2.33;;
13061;SDS011;6597;52.218;9.882;2024-01-07T12:37:39;4.13;;;2.27;;
13061;SDS011;6597;52.218;9.882;2024-01-07T12:40:06;7.67;;;2.90;;
13061;SDS011;6597;52.218;9.882;2024-01-07T12:42:35;4.10;;;2.77;;
13061;SDS011;6597;52.218;9.882;2024-01-07T12:45:02;2.90;;;2.27;;
13061;SDS011;6597;52.218;9.882;2024-01-07T12:47:29;4.53;;;3.00;;
13061;SDS011;6597;52.218;9.882;2024-01-07T12:49:56;4.03;;;2.43;;
13061;SDS011;6597;52.218;9.882;2024-01-07T12:52:23;4.97;;;2.80;;
13061;SDS011;6597;52.218;9.882;2024-01-07T12:54:52;7.03;;;2.60;;
13061;SDS011;6597;52.218;9.882;2024-01-07T12:57:21;6.33;;;2.83;;
13061;SDS011;6597;52.218;9.882;2024-01-07T12:59:47;5.20;;;2.70;;
13061;SDS011;6597;52.218;9.882;2024-01-07T13:02:14;4.17;;;2.60;;
13061;SDS011;6597;52.218;9.882;2024-01-07T13:04:41;4.80;;;2.70;;
13061;SDS011;6597;52.218;9.882;2024-01-07T13:07:07;6.40;;;2.63;;
13061;SDS011;6597;52.218;9.882;2024-01-07T13:09:34;3.77;;;2.50;;
13061;SDS011;6597;52.218;9.882;2024-01-07T13:12:02;4.53;;;2.97;;
13061;SDS011;6597;52.218;9.882;2024-01-07T13:14:29;4.13;;;2.53;;
13061;SDS011;6597;52.218;9.882;2024-01-07T13:16:55;5.03;;;2.47;;
13061;SDS011;6597;52.218;9.882;2024-01-07T13:19:22;4.87;;;2.70;;
13061;SDS011;6597;52.218;9.882;2024-01-07T13:21:49;4.23;;;2.47;;
13061;SDS011;6597;52.218;9.882;2024-01-07T13:24:16;7.93;;;2.40;;
13061;SDS011;6597;52.218;9.882;2024-01-07T13:26:42;6.10;;;2.70;;
13061;SDS011;6597;52.218;9.882;2024-01-07T13:29:10;4.20;;;2.37;;
13061;SDS011;6597;52.218;9.882;2024-01-07T13:31:37;5.30;;;2.87;;
13061;SDS011;6597;52.218;9.882;2024-01-07T13:34:03;4.07;;;2.67;;
13061;SDS011;6597;52.218;9.882;2024-01-07T13:36:30;4.43;;;2.80;;
13061;SDS011;6597;52.218;9.882;2024-01-07T13:38:56;4.87;;;2.20;;
13061;SDS011;6597;52.218;9.882;2024-01-07T13:41:23;6.60;;;3.33;;
13061;SDS011;6597;52.218;9.882;2024-01-07T13:43:53;5.33;;;2.80;;
13061;SDS011;6597;52.218;9.882;2024-01-07T13:46:22;4.17;;;2.43;;
13061;SDS011;6597;52.218;9.882;2024-01-07T13:48:50;5.90;;;3.37;;
13061;SDS011;6597;52.218;9.882;2024-01-07T13:51:17;8.17;;;3.40;;
13061;SDS011;6597;52.218;9.882;2024-01-07T13:53:44;4.77;;;2.90;;
13061;SDS011;6597;52.218;9.882;2024-01-07T13:56:11;5.67;;;2.97;;
13061;SDS011;6597;52.218;9.882;2024-01-07T13:58:39;7.07;;;3.60;;
13061;SDS011;6597;52.218;9.882;2024-01-07T14:01:05;4.40;;;3.03;;
13061;SDS011;6597;52.218;9.882;2024-01-07T14:03:33;4.67;;;2.77;;
13061;SDS011;6597;52.218;9.882;2024-01-07T14:06:00;5.57;;;3.00;;
13061;SDS011;6597;52.218;9.882;2024-01-07T14:08:27;4.07;;;2.43;;
13061;SDS011;6597;52.218;9.882;2024-01-07T14:10:54;4.27;;;2.80;;
13061;SDS011;6597;52.218;9.882;2024-01-07T14:13:20;5.93;;;2.57;;
13061;SDS011;6597;52.218;9.882;2024-01-07T14:15:47;4.77;;;2.50;;
13061;SDS011;6597;52.218;9.882;2024-01-07T14:18:13;4.60;;;3.07;;
13061;SDS011;6597;52.218;9.882;2024-01-07T14:20:43;8.43;;;3.60;;
13061;SDS011;6597;52.218;9.882;2024-01-07T14:23:10;5.87;;;2.87;;
13061;SDS011;6597;52.218;9.882;2024-01-07T14:25:36;4.73;;;3.07;;
13061;SDS011;6597;52.218;9.882;2024-01-07T14:28:03;7.93;;;3.83;;
13061;SDS011;6597;52.218;9.882;2024-01-07T14:30:30;4.90;;;3.13;;
13061;SDS011;6597;52.218;9.882;2024-01-07T14:32:56;4.53;;;3.27;;
13061;SDS011;6597;52.218;9.882;2024-01-07T14:35:23;5.63;;;3.40;;
13061;SDS011;6597;52.218;9.882;2024-01-07T14:37:52;5.77;;;3.63;;
13061;SDS011;6597;52.218;9.882;2024-01-07T14:40:19;5.10;;;3.33;;
13061;SDS011;6597;52.218;9.882;2024-01-07T14:42:45;5.50;;;3.43;;
13061;SDS011;6597;52.218;9.882;2024-01-07T14:45:12;6.20;;;3.40;;
13061;SDS011;6597;52.218;9.882;2024-01-07T14:47:39;3.93;;;2.90;;
13061;SDS011;6597;52.218;9.882;2024-01-07T14:50:06;4.27;;;2.70;;
13061;SDS011;6597;52.218;9.882;2024-01-07T14:52:33;6.37;;;3.40;;
13061;SDS011;6597;52.218;9.882;2024-01-07T14:55:01;5.00;;;2.80;;
13061;SDS011;6597;52.218;9.882;2024-01-07T14:57:28;6.87;;;2.83;;